Terminal Aerodrome Forecast
Issued by NWS Indianapolis, IN

Home | Current Version | Previous Version | Text Only | Print | Product List | Glossary On
Versions: 1 2 3 4 5 6 7 8 9 10 11 12 13 14 15 16 17 18 19 20 21 22 23 24 25 26
251
FTUS43 KIND 272325
TAFIND
TAF
KIND 272325Z 2800/2906 09007KT P6SM VCSH BKN060
     FM280300 03005KT 4SM BR VCSH OVC025
     FM280500 01006KT 4SM BR VCSH OVC008
     FM280800 36007KT P6SM OVC008
     FM281800 05006KT P6SM BKN015=

USA.gov is the U.S. government's official web portal to all federal, state and local government web resources and services.